Time;durP1;ratioP1;P1;durP2;ratioP2;P2;SDS_P1;SDS_P2;PMS_P1;PMS_P2;Temp;Humidity;BMP_temperature;BMP_pressure;BME280_temperature;BME280_humidity;BME280_pressure;Samples;Min_cycle;Max_cycle;Signal;HPM_P1;HPM_P2
2022/01/18 00:00:28;;;;;;;19.20;11.83;;;;;;;;;;5062293;28;20222;-81
2022/01/18 00:02:55;;;;;;;19.13;12.43;;;;;;;;;;5060573;28;20363;-81
2022/01/18 00:05:23;;;;;;;26.67;12.77;;;;;;;;;;5064584;28;20198;-81
2022/01/18 00:07:50;;;;;;;20.10;12.13;;;;;;;;;;5060367;28;20741;-81
2022/01/18 00:10:17;;;;;;;24.67;12.00;;;;;;;;;;5060711;28;20230;-81
2022/01/18 00:13:07;;;;;;;23.43;12.27;;;;;;;;;;5060581;28;20320;-81
2022/01/18 00:15:41;;;;;;;21.93;11.97;;;;;;;;;;5078035;28;20197;-81
2022/01/18 00:18:11;;;;;;;17.67;11.17;;;;;;;;;;5059779;28;20238;-81
2022/01/18 00:20:50;;;;;;;20.23;11.10;;;;;;;;;;5072933;28;20225;-81
2022/01/18 00:23:17;;;;;;;19.33;10.97;;;;;;;;;;5078379;28;20240;-81
2022/01/18 00:25:48;;;;;;;16.97;11.03;;;;;;;;;;5076431;28;20692;-81
2022/01/18 00:28:15;;;;;;;17.10;10.47;;;;;;;;;;5079317;28;20439;-81
2022/01/18 00:31:10;;;;;;;19.67;10.93;;;;;;;;;;5073226;28;20637;-81
2022/01/18 00:33:49;;;;;;;17.63;11.03;;;;;;;;;;5071425;28;20616;-81
2022/01/18 00:36:23;;;;;;;18.93;10.63;;;;;;;;;;5073916;28;20205;-81
2022/01/18 00:38:51;;;;;;;19.67;10.13;;;;;;;;;;5079099;28;20232;-81
2022/01/18 00:41:18;;;;;;;14.37;10.13;;;;;;;;;;5080618;28;20229;-81
2022/01/18 00:43:46;;;;;;;19.93;11.00;;;;;;;;;;5068699;28;20237;-81
2022/01/18 00:46:14;;;;;;;16.53;11.00;;;;;;;;;;5075878;28;20204;-81
2022/01/18 00:48:42;;;;;;;20.67;10.47;;;;;;;;;;5078069;28;20232;-81
2022/01/18 00:51:11;;;;;;;23.40;10.93;;;;;;;;;;5080616;28;20221;-81
2022/01/18 00:53:39;;;;;;;22.57;11.23;;;;;;;;;;5079749;28;20595;-81
2022/01/18 00:56:17;;;;;;;18.33;10.47;;;;;;;;;;5080119;28;20206;-81
2022/01/18 00:58:46;;;;;;;23.60;11.27;;;;;;;;;;5069865;28;20284;-81
2022/01/18 01:01:15;;;;;;;15.47;10.10;;;;;;;;;;5078233;28;20217;-81
2022/01/18 01:03:42;;;;;;;19.60;11.73;;;;;;;;;;5079194;28;20241;-81
2022/01/18 01:06:10;;;;;;;20.07;10.47;;;;;;;;;;5078265;28;20205;-81
2022/01/18 01:08:38;;;;;;;18.97;10.30;;;;;;;;;;5078121;28;20226;-81
2022/01/18 01:11:05;;;;;;;19.63;10.90;;;;;;;;;;5072867;28;20226;-81
2022/01/18 01:13:33;;;;;;;20.37;10.70;;;;;;;;;;5061512;28;20229;-81
2022/01/18 01:16:11;;;;;;;19.50;10.10;;;;;;;;;;5079817;28;20209;-81
2022/01/18 01:18:48;;;;;;;22.97;10.30;;;;;;;;;;5078877;28;20261;-81
2022/01/18 01:35:03;;;;;;;16.67;7.50;;;;;;;;;;5062722;28;20644;-81
2022/01/18 01:43:12;;;;;;;15.87;8.13;;;;;;;;;;5079044;28;20260;-81
2022/01/18 01:45:39;;;;;;;15.10;8.47;;;;;;;;;;5065030;28;20653;-81
2022/01/18 01:48:07;;;;;;;14.60;8.43;;;;;;;;;;5059091;28;20237;-81
2022/01/18 01:50:44;;;;;;;14.13;8.20;;;;;;;;;;5073812;28;20217;-81
2022/01/18 01:53:11;;;;;;;16.53;8.80;;;;;;;;;;5066605;28;20278;-81
2022/01/18 01:55:39;;;;;;;20.60;8.60;;;;;;;;;;5076097;28;20220;-81
2022/01/18 01:58:06;;;;;;;14.13;6.40;;;;;;;;;;5072868;28;20240;-81
2022/01/18 02:00:33;;;;;;;13.43;7.00;;;;;;;;;;5076976;28;20229;-81
2022/01/18 02:03:00;;;;;;;12.67;6.97;;;;;;;;;;5073522;28;20249;-81
2022/01/18 02:05:28;;;;;;;11.70;6.37;;;;;;;;;;5078203;28;20638;-81
2022/01/18 02:07:56;;;;;;;11.87;5.97;;;;;;;;;;5064400;28;20423;-81
2022/01/18 02:10:23;;;;;;;7.30;5.10;;;;;;;;;;5073914;28;20589;-79
2022/01/18 02:12:50;;;;;;;7.83;5.03;;;;;;;;;;5074827;28;20238;-79
2022/01/18 02:15:19;;;;;;;8.67;5.43;;;;;;;;;;5077841;28;20206;-79
2022/01/18 02:23:18;;;;;;;7.80;4.27;;;;;;;;;;5072195;28;20231;-79
2022/01/18 02:25:45;;;;;;;8.43;4.30;;;;;;;;;;5078073;28;20275;-79
2022/01/18 02:28:12;;;;;;;12.17;4.23;;;;;;;;;;5075467;28;20224;-79
2022/01/18 02:30:40;;;;;;;7.43;3.63;;;;;;;;;;5055044;28;20275;-79
2022/01/18 02:33:07;;;;;;;6.27;3.50;;;;;;;;;;5054114;28;20229;-79
2022/01/18 02:35:36;;;;;;;6.73;3.40;;;;;;;;;;5054281;28;20216;-79
2022/01/18 02:38:03;;;;;;;4.40;3.60;;;;;;;;;;5062431;28;20233;-79
2022/01/18 02:40:31;;;;;;;8.00;4.53;;;;;;;;;;5073396;28;20229;-79
2022/01/18 02:43:01;;;;;;;6.47;3.43;;;;;;;;;;5072294;28;20237;-79
2022/01/18 02:45:28;;;;;;;3.87;3.10;;;;;;;;;;5062711;28;20219;-79
2022/01/18 02:47:56;;;;;;;4.43;3.13;;;;;;;;;;5071992;28;20598;-79
2022/01/18 02:50:23;;;;;;;4.43;3.10;;;;;;;;;;5073612;28;20228;-79
2022/01/18 02:52:51;;;;;;;5.10;2.90;;;;;;;;;;5068795;28;20226;-79
2022/01/18 02:55:18;;;;;;;7.80;3.63;;;;;;;;;;5054535;28;20205;-79
2022/01/18 02:57:55;;;;;;;4.17;3.30;;;;;;;;;;5053171;28;20245;-79
2022/01/18 03:00:30;;;;;;;8.53;3.53;;;;;;;;;;5069699;28;20711;-79
2022/01/18 03:03:13;;;;;;;5.67;3.27;;;;;;;;;;5052424;28;20237;-79
2022/01/18 03:05:41;;;;;;;5.20;3.30;;;;;;;;;;5072572;28;20197;-79
2022/01/18 03:08:10;;;;;;;5.53;4.13;;;;;;;;;;5072430;28;20241;-79
2022/01/18 03:10:38;;;;;;;7.13;3.83;;;;;;;;;;5072413;28;20256;-79
2022/01/18 03:13:05;;;;;;;5.70;3.37;;;;;;;;;;5075426;22;20227;-80
2022/01/18 03:15:33;;;;;;;6.50;3.80;;;;;;;;;;5037245;28;20216;-80
2022/01/18 03:18:01;;;;;;;10.67;4.10;;;;;;;;;;5036481;28;20237;-80
2022/01/18 03:20:28;;;;;;;4.60;4.00;;;;;;;;;;5034584;28;20549;-81
2022/01/18 03:22:55;;;;;;;8.37;3.87;;;;;;;;;;5033413;28;20241;-81
2022/01/18 03:25:29;;;;;;;6.73;3.37;;;;;;;;;;5035738;28;20225;-81
2022/01/18 03:28:05;;;;;;;7.10;3.67;;;;;;;;;;5040327;28;20234;-81
2022/01/18 03:30:33;;;;;;;7.77;3.27;;;;;;;;;;5036517;28;20203;-80
2022/01/18 03:33:00;;;;;;;5.67;4.03;;;;;;;;;;5036140;28;20894;-80
2022/01/18 03:35:27;;;;;;;8.53;3.73;;;;;;;;;;5019993;28;20281;-80
2022/01/18 03:37:54;;;;;;;6.77;3.60;;;;;;;;;;5023541;28;20233;-80
2022/01/18 03:40:22;;;;;;;5.63;3.23;;;;;;;;;;5032044;28;20229;-81
2022/01/18 03:42:51;;;;;;;9.40;3.60;;;;;;;;;;5022864;28;20654;-81
2022/01/18 03:45:19;;;;;;;8.23;3.73;;;;;;;;;;5031271;28;20217;-81
2022/01/18 03:47:47;;;;;;;8.37;3.23;;;;;;;;;;5031487;28;20234;-81
2022/01/18 03:50:15;;;;;;;5.57;3.17;;;;;;;;;;5021383;28;20281;-81
2022/01/18 03:52:43;;;;;;;8.17;3.47;;;;;;;;;;5031105;28;20660;-81
2022/01/18 03:55:12;;;;;;;4.97;3.23;;;;;;;;;;5031720;28;20205;-80
2022/01/18 03:57:39;;;;;;;7.40;3.80;;;;;;;;;;5032534;28;20234;-81
2022/01/18 04:00:12;;;;;;;7.77;2.87;;;;;;;;;;5033420;28;20206;-81
2022/01/18 04:02:39;;;;;;;3.73;3.37;;;;;;;;;;5024979;28;20253;-81
2022/01/18 04:05:06;;;;;;;3.37;3.00;;;;;;;;;;5023542;28;20209;-81
2022/01/18 04:07:33;;;;;;;9.17;3.10;;;;;;;;;;5031654;28;20288;-80
2022/01/18 04:10:00;;;;;;;4.10;2.80;;;;;;;;;;5032593;28;20260;-81
2022/01/18 04:12:28;;;;;;;8.13;3.20;;;;;;;;;;5031935;28;20234;-81
2022/01/18 04:14:55;;;;;;;5.73;3.40;;;;;;;;;;5032652;28;20203;-81
2022/01/18 04:17:45;;;;;;;6.27;3.67;;;;;;;;;;5032732;28;20313;-81
2022/01/18 04:25:54;;;;;;;4.50;3.27;;;;;;;;;;4976689;28;20212;-80
2022/01/18 04:28:29;;;;;;;8.73;3.40;;;;;;;;;;5033559;28;20231;-80
2022/01/18 04:30:56;;;;;;;4.60;3.17;;;;;;;;;;5033993;28;20224;-80
2022/01/18 04:33:25;;;;;;;8.17;3.47;;;;;;;;;;5033193;28;20666;-80
2022/01/18 04:35:52;;;;;;;4.67;2.90;;;;;;;;;;5034030;28;20229;-81
2022/01/18 04:38:19;;;;;;;3.67;3.30;;;;;;;;;;5033723;28;20308;-80
2022/01/18 04:40:47;;;;;;;5.53;3.17;;;;;;;;;;5034556;28;20237;-81
2022/01/18 04:43:19;;;;;;;4.03;3.60;;;;;;;;;;5037238;28;20237;-80
2022/01/18 04:48:34;;;;;;;6.47;3.17;;;;;;;;;;5037546;28;20238;-81
2022/01/18 04:51:02;;;;;;;6.37;2.97;;;;;;;;;;5038084;28;20296;-81
2022/01/18 04:53:31;;;;;;;8.27;3.43;;;;;;;;;;5036707;28;20330;-80
2022/01/18 04:56:00;;;;;;;6.90;3.40;;;;;;;;;;5038382;28;20221;-82
2022/01/18 04:58:27;;;;;;;6.97;3.43;;;;;;;;;;5037833;28;20731;-81
2022/01/18 05:00:55;;;;;;;6.30;3.43;;;;;;;;;;5037728;28;20206;-81
2022/01/18 05:03:22;;;;;;;7.50;3.30;;;;;;;;;;5036816;28;20249;-80
2022/01/18 05:05:53;;;;;;;7.57;2.63;;;;;;;;;;5039595;28;20213;-81
2022/01/18 05:08:20;;;;;;;7.30;3.17;;;;;;;;;;5045179;28;20230;-82
2022/01/18 05:10:52;;;;;;;7.40;2.93;;;;;;;;;;5038086;28;20300;-82
2022/01/18 05:13:37;;;;;;;3.93;2.97;;;;;;;;;;5038694;28;20268;-82
2022/01/18 05:16:21;;;;;;;5.20;3.63;;;;;;;;;;5044288;28;20277;-81
2022/01/18 05:19:06;;;;;;;6.23;2.90;;;;;;;;;;5044323;28;20252;-81
2022/01/18 05:22:55;;;;;;;7.47;2.80;;;;;;;;;;5039359;28;20602;-81
2022/01/18 05:24:21;;;;;;;7.30;3.03;;;;;;;;;;5015950;28;20242;-82
2022/01/18 05:26:48;;;;;;;4.77;2.80;;;;;;;;;;5015942;28;20217;-80
2022/01/18 05:29:16;;;;;;;5.77;3.33;;;;;;;;;;5015160;28;20239;-81
2022/01/18 05:31:43;;;;;;;9.07;3.57;;;;;;;;;;5016543;28;20207;-81
2022/01/18 05:34:10;;;;;;;6.40;3.63;;;;;;;;;;5016062;28;20230;-81
2022/01/18 05:36:39;;;;;;;5.30;3.80;;;;;;;;;;5016040;28;20211;-81
2022/01/18 05:39:06;;;;;;;7.30;3.80;;;;;;;;;;5016748;28;20437;-81
2022/01/18 05:41:34;;;;;;;5.17;3.67;;;;;;;;;;5017030;28;20207;-81
2022/01/18 05:44:01;;;;;;;2.87;2.53;;;;;;;;;;5016125;28;20238;-81
2022/01/18 05:46:28;;;;;;;4.93;2.93;;;;;;;;;;5016304;28;20265;-80
2022/01/18 05:48:55;;;;;;;5.37;3.47;;;;;;;;;;5015984;28;20243;-80
2022/01/18 05:51:22;;;;;;;8.07;3.13;;;;;;;;;;5016172;28;20242;-80
2022/01/18 05:53:50;;;;;;;5.97;3.47;;;;;;;;;;5016169;28;20617;-80
2022/01/18 05:56:17;;;;;;;8.27;3.23;;;;;;;;;;5016603;28;20217;-81
2022/01/18 05:58:45;;;;;;;8.07;3.67;;;;;;;;;;5015454;28;20238;-80
2022/01/18 06:01:13;;;;;;;7.47;3.60;;;;;;;;;;5017004;28;20305;-81
2022/01/18 06:03:53;;;;;;;3.10;2.70;;;;;;;;;;5013358;28;20242;-80
2022/01/18 06:09:06;;;;;;;7.53;3.00;;;;;;;;;;5038341;28;20272;-82
2022/01/18 06:11:33;;;;;;;6.80;3.30;;;;;;;;;;5043453;28;20209;-84
2022/01/18 06:14:01;;;;;;;6.80;3.30;;;;;;;;;;5044362;28;20229;-84
2022/01/18 06:16:28;;;;;;;6.77;3.33;;;;;;;;;;5044751;28;20217;-85
2022/01/18 06:18:55;;;;;;;5.23;3.13;;;;;;;;;;5041940;28;20242;-85
2022/01/18 06:21:23;;;;;;;7.63;3.30;;;;;;;;;;5038244;28;20220;-84
2022/01/18 06:23:50;;;;;;;7.93;3.20;;;;;;;;;;5041011;28;20717;-85
2022/01/18 06:26:18;;;;;;;8.53;4.00;;;;;;;;;;5036436;28;20298;-85
2022/01/18 06:28:46;;;;;;;5.30;3.50;;;;;;;;;;5041823;28;20246;-85
2022/01/18 06:31:14;;;;;;;8.10;4.07;;;;;;;;;;5041112;28;20219;-85
2022/01/18 06:33:41;;;;;;;7.23;3.60;;;;;;;;;;5040706;28;20242;-85
2022/01/18 06:36:08;;;;;;;11.10;4.40;;;;;;;;;;5041802;28;20213;-85
2022/01/18 06:38:36;;;;;;;9.90;5.37;;;;;;;;;;5042476;28;20319;-85
2022/01/18 06:41:04;;;;;;;13.73;7.00;;;;;;;;;;5041650;28;20221;-85
2022/01/18 06:43:32;;;;;;;9.93;5.63;;;;;;;;;;5040010;28;20265;-85
2022/01/18 06:46:00;;;;;;;12.83;5.67;;;;;;;;;;5039656;28;20203;-81
2022/01/18 06:48:27;;;;;;;10.57;5.53;;;;;;;;;;5036162;28;20247;-84
2022/01/18 06:50:54;;;;;;;8.97;5.93;;;;;;;;;;5041664;28;20210;-84
2022/01/18 06:53:21;;;;;;;11.27;6.50;;;;;;;;;;5046919;28;20233;-84
2022/01/18 06:55:52;;;;;;;8.60;6.23;;;;;;;;;;5043953;28;20205;-84
2022/01/18 06:58:19;;;;;;;12.20;8.33;;;;;;;;;;5043774;28;20265;-84
2022/01/18 07:00:47;;;;;;;12.27;6.50;;;;;;;;;;5044247;28;20217;-84
2022/01/18 07:03:15;;;;;;;11.80;6.70;;;;;;;;;;5044219;28;20295;-84
2022/01/18 07:05:42;;;;;;;13.30;5.80;;;;;;;;;;5044647;28;20209;-84
2022/01/18 07:08:09;;;;;;;13.20;7.13;;;;;;;;;;5036979;28;20752;-86
2022/01/18 07:10:36;;;;;;;8.03;5.33;;;;;;;;;;5033688;28;20221;-86
2022/01/18 07:13:03;;;;;;;11.87;7.90;;;;;;;;;;5032301;28;20238;-86
2022/01/18 07:15:30;;;;;;;9.40;6.87;;;;;;;;;;5032846;28;20210;-85
2022/01/18 07:17:59;;;;;;;9.17;6.40;;;;;;;;;;5032526;28;20249;-84
2022/01/18 07:20:26;;;;;;;11.57;7.10;;;;;;;;;;5041804;28;20767;-83
2022/01/18 07:22:53;;;;;;;12.53;7.53;;;;;;;;;;5041723;28;20645;-83
2022/01/18 07:25:20;;;;;;;11.23;7.40;;;;;;;;;;5041620;28;20229;-84
2022/01/18 07:27:48;;;;;;;8.83;7.10;;;;;;;;;;5042010;28;20234;-83
2022/01/18 07:30:15;;;;;;;12.70;8.90;;;;;;;;;;5043018;28;20504;-83
2022/01/18 07:32:42;;;;;;;11.47;7.27;;;;;;;;;;5042067;28;20299;-84
2022/01/18 07:35:12;;;;;;;10.70;7.40;;;;;;;;;;5038415;28;20210;-83
2022/01/18 07:37:39;;;;;;;13.37;7.63;;;;;;;;;;5023278;28;20254;-83
2022/01/18 07:40:08;;;;;;;12.60;7.33;;;;;;;;;;5023067;28;20210;-83
2022/01/18 07:42:35;;;;;;;15.17;6.63;;;;;;;;;;5027543;28;20260;-83
2022/01/18 07:45:02;;;;;;;8.57;5.70;;;;;;;;;;5041590;28;20235;-84
2022/01/18 07:47:29;;;;;;;11.33;6.30;;;;;;;;;;5042433;28;20241;-83
2022/01/18 07:49:56;;;;;;;10.47;5.67;;;;;;;;;;5035107;28;20233;-84
2022/01/18 07:52:25;;;;;;;10.57;5.70;;;;;;;;;;5022873;28;20250;-83
2022/01/18 07:54:52;;;;;;;8.23;6.00;;;;;;;;;;5032275;28;20203;-82
2022/01/18 07:57:20;;;;;;;6.60;5.33;;;;;;;;;;5039176;28;20231;-82
2022/01/18 07:59:47;;;;;;;10.17;5.67;;;;;;;;;;5022285;28;20226;-83
2022/01/18 08:02:14;;;;;;;10.03;5.90;;;;;;;;;;5017041;28;20235;-83
2022/01/18 08:04:41;;;;;;;10.77;6.93;;;;;;;;;;5020426;28;20285;-83
2022/01/18 08:07:08;;;;;;;9.17;6.07;;;;;;;;;;5019934;28;20200;-83
2022/01/18 08:09:37;;;;;;;12.43;6.13;;;;;;;;;;5019845;28;20222;-83
2022/01/18 08:12:04;;;;;;;10.37;5.97;;;;;;;;;;5019252;28;20395;-84
2022/01/18 08:14:32;;;;;;;8.53;5.83;;;;;;;;;;5038600;28;20214;-83
2022/01/18 08:17:04;;;;;;;10.47;7.00;;;;;;;;;;5041917;28;20276;-83
2022/01/18 08:19:33;;;;;;;11.57;6.37;;;;;;;;;;5042660;28;20214;-83
2022/01/18 08:22:00;;;;;;;11.10;6.63;;;;;;;;;;5041356;28;20234;-83
2022/01/18 08:24:27;;;;;;;14.73;8.10;;;;;;;;;;5041380;28;20727;-83
2022/01/18 08:26:56;;;;;;;12.20;7.50;;;;;;;;;;5042712;28;20395;-83
2022/01/18 08:29:23;;;;;;;9.57;6.47;;;;;;;;;;5043370;28;20214;-83
2022/01/18 08:31:50;;;;;;;12.03;7.37;;;;;;;;;;5040712;28;20402;-83
2022/01/18 08:34:18;;;;;;;9.30;7.77;;;;;;;;;;5041428;28;20714;-83
2022/01/18 08:36:45;;;;;;;13.77;8.23;;;;;;;;;;5040828;28;20237;-84
2022/01/18 08:39:12;;;;;;;18.47;8.57;;;;;;;;;;5041507;28;20238;-84
2022/01/18 08:41:39;;;;;;;19.20;10.70;;;;;;;;;;5041149;28;20211;-85
2022/01/18 08:44:08;;;;;;;14.73;9.87;;;;;;;;;;5048783;28;20238;-85
2022/01/18 08:46:36;;;;;;;12.90;8.40;;;;;;;;;;5042364;28;20633;-85
2022/01/18 08:49:05;;;;;;;13.07;8.93;;;;;;;;;;5043640;28;20226;-83
2022/01/18 08:51:33;;;;;;;14.87;9.40;;;;;;;;;;5062332;28;20209;-84
2022/01/18 08:54:00;;;;;;;16.83;10.20;;;;;;;;;;5060304;28;20244;-83
2022/01/18 08:56:27;;;;;;;12.90;9.53;;;;;;;;;;5057905;28;20210;-83
2022/01/18 08:58:55;;;;;;;20.47;11.63;;;;;;;;;;5055335;28;20240;-84
2022/01/18 09:01:23;;;;;;;17.43;11.30;;;;;;;;;;5054415;28;20217;-84
2022/01/18 09:03:50;;;;;;;23.27;11.73;;;;;;;;;;5053824;28;20648;-83
2022/01/18 09:06:18;;;;;;;16.87;10.17;;;;;;;;;;5054648;28;20746;-83
2022/01/18 09:08:55;;;;;;;25.07;10.93;;;;;;;;;;5055510;28;20324;-84
2022/01/18 09:11:23;;;;;;;14.93;9.37;;;;;;;;;;5056719;28;20220;-83
2022/01/18 09:13:51;;;;;;;14.83;9.30;;;;;;;;;;5055826;28;20237;-84
2022/01/18 09:16:18;;;;;;;14.10;8.77;;;;;;;;;;5071826;22;20229;-83
2022/01/18 09:18:46;;;;;;;16.13;9.27;;;;;;;;;;5059163;28;20226;-83
2022/01/18 09:21:13;;;;;;;14.17;8.67;;;;;;;;;;5074402;28;20202;-83
2022/01/18 09:23:42;;;;;;;15.83;9.43;;;;;;;;;;5076846;28;20222;-83
2022/01/18 09:26:09;;;;;;;12.83;8.80;;;;;;;;;;5068262;28;20226;-83
2022/01/18 09:28:36;;;;;;;13.17;8.00;;;;;;;;;;5075822;28;20220;-82
2022/01/18 09:31:03;;;;;;;14.07;7.80;;;;;;;;;;5064898;28;20204;-82
2022/01/18 09:33:30;;;;;;;15.70;8.43;;;;;;;;;;5056480;28;20237;-83
2022/01/18 09:35:59;;;;;;;9.63;7.27;;;;;;;;;;5055270;28;20221;-83
2022/01/18 09:38:26;;;;;;;15.53;10.57;;;;;;;;;;5054529;28;20237;-83
2022/01/18 09:40:53;;;;;;;15.73;10.47;;;;;;;;;;5053833;28;20213;-83
2022/01/18 09:43:20;;;;;;;13.33;8.83;;;;;;;;;;5045895;28;20227;-83
2022/01/18 09:45:47;;;;;;;13.60;7.77;;;;;;;;;;5033941;28;20257;-83
2022/01/18 09:48:15;;;;;;;13.47;8.17;;;;;;;;;;5033553;28;20608;-83
2022/01/18 09:50:44;;;;;;;13.67;9.03;;;;;;;;;;5033991;28;20195;-84
2022/01/18 09:53:12;;;;;;;13.17;8.73;;;;;;;;;;5022586;28;20231;-82
2022/01/18 09:55:40;;;;;;;10.23;6.70;;;;;;;;;;5018391;28;20224;-84
2022/01/18 09:58:08;;;;;;;11.43;6.80;;;;;;;;;;5014113;28;20318;-83
2022/01/18 10:00:37;;;;;;;12.67;7.67;;;;;;;;;;5014361;28;20680;-83
2022/01/18 10:03:09;;;;;;;12.30;6.67;;;;;;;;;;5016755;28;20731;-83
2022/01/18 10:05:37;;;;;;;8.60;6.33;;;;;;;;;;5018035;28;20239;-82
2022/01/18 10:08:05;;;;;;;12.53;6.87;;;;;;;;;;5018977;28;20235;-82
2022/01/18 10:10:38;;;;;;;11.87;7.10;;;;;;;;;;5019918;28;20218;-82
2022/01/18 10:13:05;;;;;;;10.57;6.13;;;;;;;;;;5018585;28;20239;-83
2022/01/18 10:15:34;;;;;;;14.73;7.00;;;;;;;;;;5017955;28;20240;-83
2022/01/18 10:18:06;;;;;;;8.30;5.80;;;;;;;;;;5015950;28;20258;-83
2022/01/18 10:20:33;;;;;;;8.43;5.60;;;;;;;;;;5015791;28;20222;-84
2022/01/18 10:23:00;;;;;;;10.63;6.00;;;;;;;;;;5014979;28;20235;-83
2022/01/18 10:25:29;;;;;;;9.77;7.53;;;;;;;;;;5018746;28;20245;-83
2022/01/18 10:27:57;;;;;;;12.43;9.00;;;;;;;;;;5017408;28;20231;-81
2022/01/18 10:30:33;;;;;;;9.77;6.00;;;;;;;;;;5016736;28;20203;-83
2022/01/18 10:33:09;;;;;;;11.30;6.43;;;;;;;;;;5024449;28;20283;-83
2022/01/18 10:35:36;;;;;;;8.83;6.00;;;;;;;;;;5035195;28;20249;-83
2022/01/18 10:38:17;;;;;;;8.03;5.57;;;;;;;;;;5034954;28;20246;-83
2022/01/18 10:40:44;;;;;;;7.17;4.93;;;;;;;;;;5035661;28;20191;-83
2022/01/18 10:43:23;;;;;;;11.03;5.97;;;;;;;;;;5027969;28;20246;-84
2022/01/18 10:45:50;;;;;;;8.40;5.73;;;;;;;;;;5036947;28;20238;-83
2022/01/18 10:48:17;;;;;;;6.10;4.77;;;;;;;;;;5038300;28;20254;-84
2022/01/18 10:50:46;;;;;;;5.80;3.93;;;;;;;;;;5036438;28;20206;-84
2022/01/18 10:53:14;;;;;;;6.30;4.57;;;;;;;;;;5036013;28;20304;-84
2022/01/18 10:55:41;;;;;;;5.20;4.00;;;;;;;;;;5043949;28;20226;-84
2022/01/18 10:58:12;;;;;;;5.70;4.70;;;;;;;;;;5027236;28;20242;-84
2022/01/18 11:00:39;;;;;;;7.13;4.10;;;;;;;;;;5019742;28;20215;-83
2022/01/18 11:03:07;;;;;;;8.90;5.13;;;;;;;;;;5019826;28;20235;-84
2022/01/18 11:05:35;;;;;;;6.03;4.83;;;;;;;;;;5014980;28;20227;-83
2022/01/18 11:08:05;;;;;;;8.67;4.87;;;;;;;;;;5015252;28;20326;-84
2022/01/18 11:10:33;;;;;;;5.87;3.97;;;;;;;;;;5015983;28;20202;-83
2022/01/18 11:13:04;;;;;;;3.83;3.40;;;;;;;;;;5027708;28;20235;-82
2022/01/18 11:15:35;;;;;;;4.20;3.50;;;;;;;;;;5053594;28;20281;-83
2022/01/18 11:18:05;;;;;;;4.40;3.40;;;;;;;;;;5049064;28;20304;-82
2022/01/18 11:20:34;;;;;;;3.90;3.20;;;;;;;;;;5036362;28;20207;-83
2022/01/18 11:23:02;;;;;;;12.37;3.53;;;;;;;;;;5035348;28;20234;-83
2022/01/18 11:25:29;;;;;;;6.27;4.53;;;;;;;;;;5035694;28;20230;-84
2022/01/18 11:27:58;;;;;;;4.20;3.50;;;;;;;;;;5034397;28;20255;-83
2022/01/18 11:30:26;;;;;;;8.40;4.00;;;;;;;;;;5035212;28;20210;-83
2022/01/18 11:32:55;;;;;;;6.20;3.93;;;;;;;;;;5025402;28;20250;-84
2022/01/18 11:35:25;;;;;;;6.23;3.77;;;;;;;;;;5014852;28;20227;-83
2022/01/18 11:37:59;;;;;;;9.17;4.17;;;;;;;;;;5015611;28;20285;-83
2022/01/18 11:40:27;;;;;;;4.70;3.30;;;;;;;;;;5014015;28;20266;-84
2022/01/18 11:42:55;;;;;;;5.03;3.17;;;;;;;;;;5014606;28;20239;-82
2022/01/18 11:45:40;;;;;;;4.10;2.87;;;;;;;;;;5015077;28;20231;-83
2022/01/18 11:48:11;;;;;;;5.33;3.00;;;;;;;;;;5014628;28;20314;-82
2022/01/18 11:50:41;;;;;;;7.57;3.87;;;;;;;;;;5017104;28;20210;-82
2022/01/18 11:53:22;;;;;;;7.60;3.70;;;;;;;;;;4999352;28;20235;-85
2022/01/18 11:55:49;;;;;;;6.40;4.40;;;;;;;;;;4999212;28;20227;-86
2022/01/18 11:58:16;;;;;;;5.53;3.90;;;;;;;;;;5018138;28;20242;-86
2022/01/18 12:00:52;;;;;;;4.20;3.03;;;;;;;;;;5017185;28;20670;-85
2022/01/18 12:03:22;;;;;;;3.10;2.37;;;;;;;;;;5001908;28;20246;-85
2022/01/18 12:05:49;;;;;;;3.87;2.17;;;;;;;;;;5000200;28;20263;-82
2022/01/18 12:08:33;;;;;;;2.57;2.10;;;;;;;;;;4999498;28;20239;-83
2022/01/18 12:11:00;;;;;;;3.30;2.30;;;;;;;;;;5012595;28;20249;-83
2022/01/18 12:13:33;;;;;;;3.17;2.63;;;;;;;;;;5018353;28;20243;-82
2022/01/18 12:16:01;;;;;;;2.50;2.30;;;;;;;;;;5017364;28;20235;-85
2022/01/18 12:18:30;;;;;;;2.20;2.10;;;;;;;;;;5017047;28;20313;-85
2022/01/18 12:20:58;;;;;;;2.17;1.93;;;;;;;;;;5017915;28;20202;-84
2022/01/18 12:23:26;;;;;;;1.93;1.83;;;;;;;;;;5013997;28;20242;-85
2022/01/18 12:25:59;;;;;;;3.63;2.07;;;;;;;;;;5016566;28;20234;-86
2022/01/18 12:28:55;;;;;;;2.47;2.10;;;;;;;;;;5015251;28;20683;-85
2022/01/18 12:31:54;;;;;;;1.83;1.70;;;;;;;;;;5018165;28;20196;-84
2022/01/18 12:34:32;;;;;;;1.80;1.70;;;;;;;;;;5017401;28;20569;-83
2022/01/18 12:37:20;;;;;;;5.87;1.97;;;;;;;;;;5016388;28;20227;-83
2022/01/18 12:40:05;;;;;;;2.00;1.90;;;;;;;;;;5016394;28;20208;-86
2022/01/18 12:45:16;;;;;;;1.77;1.67;;;;;;;;;;5015000;28;20207;-84
2022/01/18 12:47:45;;;;;;;2.90;1.90;;;;;;;;;;5016581;28;20619;-83
2022/01/18 12:50:14;;;;;;;2.60;1.87;;;;;;;;;;5016470;28;20211;-84
2022/01/18 12:52:46;;;;;;;2.10;1.87;;;;;;;;;;5015923;28;20243;-83
2022/01/18 12:55:25;;;;;;;2.70;1.60;;;;;;;;;;5016525;28;20706;-84
2022/01/18 12:57:58;;;;;;;4.43;1.77;;;;;;;;;;5016200;28;20610;-84
2022/01/18 13:00:25;;;;;;;2.17;1.57;;;;;;;;;;5016434;28;20207;-84
2022/01/18 13:02:52;;;;;;;1.70;1.60;;;;;;;;;;5014244;28;20271;-85
2022/01/18 13:05:20;;;;;;;1.90;1.73;;;;;;;;;;5015087;28;20208;-84
2022/01/18 13:07:51;;;;;;;1.83;1.70;;;;;;;;;;5016339;28;20238;-84
2022/01/18 13:10:18;;;;;;;1.47;1.47;;;;;;;;;;5019001;28;20210;-83
2022/01/18 13:12:46;;;;;;;1.60;1.50;;;;;;;;;;5032804;28;20612;-84
2022/01/18 13:15:23;;;;;;;1.47;1.37;;;;;;;;;;5018024;28;20238;-85
2022/01/18 13:23:32;;;;;;;2.10;1.47;;;;;;;;;;5033868;28;20368;-84
2022/01/18 13:26:01;;;;;;;2.10;1.40;;;;;;;;;;4995603;28;20681;-84
2022/01/18 13:28:33;;;;;;;3.63;1.40;;;;;;;;;;4995615;28;20301;-85
2022/01/18 13:31:13;;;;;;;7.37;1.37;;;;;;;;;;4995886;28;20184;-84
2022/01/18 13:33:50;;;;;;;2.13;1.30;;;;;;;;;;4996072;28;20239;-84
2022/01/18 13:36:20;;;;;;;1.20;1.20;;;;;;;;;;4998968;28;20234;-86
2022/01/18 13:38:47;;;;;;;1.40;1.30;;;;;;;;;;5014922;28;20235;-84
2022/01/18 13:41:14;;;;;;;1.80;1.23;;;;;;;;;;5015557;28;20211;-85
2022/01/18 13:43:42;;;;;;;1.67;1.50;;;;;;;;;;5030179;28;20241;-85
2022/01/18 13:46:09;;;;;;;2.63;1.40;;;;;;;;;;5035602;28;20322;-85
2022/01/18 13:48:37;;;;;;;1.20;1.20;;;;;;;;;;5036177;28;20238;-85
2022/01/18 13:51:11;;;;;;;3.90;1.47;;;;;;;;;;5037419;28;20732;-85
2022/01/18 13:53:39;;;;;;;1.47;1.40;;;;;;;;;;5038594;28;20230;-83
2022/01/18 13:56:10;;;;;;;1.40;1.30;;;;;;;;;;5035928;28;20219;-84
2022/01/18 13:58:39;;;;;;;1.50;1.40;;;;;;;;;;5034463;28;20727;-84
2022/01/18 14:01:07;;;;;;;1.37;1.27;;;;;;;;;;5034670;28;20214;-85
2022/01/18 14:03:35;;;;;;;1.23;1.23;;;;;;;;;;5033727;28;20335;-85
2022/01/18 14:06:02;;;;;;;1.40;1.10;;;;;;;;;;5034894;28;20573;-84
2022/01/18 14:08:33;;;;;;;1.10;1.10;;;;;;;;;;5033871;28;20239;-85
2022/01/18 14:11:03;;;;;;;1.40;1.30;;;;;;;;;;5034305;28;20276;-85
2022/01/18 14:13:35;;;;;;;1.27;1.20;;;;;;;;;;5032860;28;20246;-85
2022/01/18 14:16:03;;;;;;;1.23;1.20;;;;;;;;;;5033281;28;20227;-85
2022/01/18 14:18:30;;;;;;;0.90;0.90;;;;;;;;;;5034935;28;20234;-84
2022/01/18 14:20:57;;;;;;;1.60;1.30;;;;;;;;;;5027522;28;20210;-84
2022/01/18 14:23:24;;;;;;;1.23;1.23;;;;;;;;;;5022037;28;20235;-84
2022/01/18 14:25:51;;;;;;;1.10;1.10;;;;;;;;;;5014483;28;20318;-84
2022/01/18 14:28:19;;;;;;;1.20;1.20;;;;;;;;;;5013699;28;20230;-84
2022/01/18 14:30:48;;;;;;;2.40;1.40;;;;;;;;;;5014752;28;20207;-84
2022/01/18 14:33:15;;;;;;;1.10;1.10;;;;;;;;;;5013487;28;20250;-84
2022/01/18 14:35:43;;;;;;;1.27;1.27;;;;;;;;;;5013849;28;20365;-85
2022/01/18 14:38:11;;;;;;;1.20;1.20;;;;;;;;;;5014387;28;20242;-84
2022/01/18 14:40:39;;;;;;;1.90;1.03;;;;;;;;;;5015970;28;20239;-84
2022/01/18 14:43:13;;;;;;;1.10;1.10;;;;;;;;;;5019729;28;20222;-85
2022/01/18 14:46:00;;;;;;;1.40;1.30;;;;;;;;;;5035328;28;20222;-85
2022/01/18 14:48:28;;;;;;;2.03;1.23;;;;;;;;;;5047889;28;20239;-85
2022/01/18 14:50:55;;;;;;;1.33;1.30;;;;;;;;;;5052988;28;20237;-85
2022/01/18 14:53:22;;;;;;;4.63;1.17;;;;;;;;;;5032340;28;20234;-85
2022/01/18 14:55:50;;;;;;;2.67;1.30;;;;;;;;;;5033455;28;20253;-86
2022/01/18 14:58:17;;;;;;;4.03;1.40;;;;;;;;;;5033898;28;20705;-85
2022/01/18 15:00:46;;;;;;;8.83;1.57;;;;;;;;;;5034190;28;20237;-83
2022/01/18 15:03:14;;;;;;;4.57;1.83;;;;;;;;;;5033381;28;20234;-85
2022/01/18 15:05:41;;;;;;;2.83;1.53;;;;;;;;;;5033702;28;20219;-85
2022/01/18 15:08:09;;;;;;;12.03;1.90;;;;;;;;;;5032947;28;20273;-86
2022/01/18 15:10:36;;;;;;;10.37;1.90;;;;;;;;;;5033766;28;20210;-86
2022/01/18 15:13:05;;;;;;;5.30;1.67;;;;;;;;;;5033101;28;20284;-85
2022/01/18 15:15:32;;;;;;;4.73;2.10;;;;;;;;;;5033421;28;20669;-82
2022/01/18 15:18:01;;;;;;;5.97;2.00;;;;;;;;;;5035440;28;20238;-83
2022/01/18 15:20:28;;;;;;;8.67;2.50;;;;;;;;;;5036693;28;20203;-83
2022/01/18 15:22:55;;;;;;;5.60;2.00;;;;;;;;;;5036048;28;20234;-83
2022/01/18 15:25:24;;;;;;;6.70;2.33;;;;;;;;;;5034231;28;20245;-83
2022/01/18 15:27:51;;;;;;;7.93;2.60;;;;;;;;;;5020377;28;20231;-85
2022/01/18 15:30:19;;;;;;;11.43;2.97;;;;;;;;;;5033445;28;20203;-86
2022/01/18 15:32:47;;;;;;;2.20;1.67;;;;;;;;;;5031104;28;20250;-86